createdAt,value
2023-04-20T00:01:33.914Z,9.57
2023-04-20T00:04:02.045Z,9.36
2023-04-20T00:06:32.322Z,9.20
2023-04-20T00:09:01.901Z,9.24
2023-04-20T00:11:29.646Z,9.38
2023-04-20T00:13:57.684Z,9.35
2023-04-20T00:16:25.519Z,9.19
2023-04-20T00:18:53.539Z,9.23
2023-04-20T00:21:24.186Z,9.16
2023-04-20T00:23:52.392Z,9.02
2023-04-20T00:26:22.239Z,8.85
2023-04-20T00:28:53.854Z,8.89
2023-04-20T00:31:22.109Z,8.64
2023-04-20T00:33:50.255Z,8.72
2023-04-20T00:36:18.116Z,8.97
2023-04-20T00:38:46.004Z,8.79
2023-04-20T00:41:13.869Z,8.77
2023-04-20T00:43:52.542Z,8.76
2023-04-20T00:46:20.564Z,8.56
2023-04-20T00:48:51.197Z,8.77
2023-04-20T00:51:19.551Z,8.73
2023-04-20T00:53:47.678Z,8.58
2023-04-20T00:56:16.437Z,8.90
2023-04-20T00:58:44.431Z,8.51
2023-04-20T01:01:17.568Z,8.48
2023-04-20T01:03:48.046Z,8.71
2023-04-20T01:06:16.685Z,8.64
2023-04-20T01:08:49.719Z,8.53
2023-04-20T01:11:18.078Z,8.57
2023-04-20T01:13:45.960Z,8.44
2023-04-20T01:16:15.345Z,8.45
2023-04-20T01:18:46.475Z,8.47
2023-04-20T01:21:15.347Z,8.53
2023-04-20T01:23:45.303Z,8.48
2023-04-20T01:26:15.443Z,8.30
2023-04-20T01:28:43.663Z,8.41
2023-04-20T01:31:12.413Z,8.35
2023-04-20T01:33:40.569Z,8.40
2023-04-20T01:36:09.347Z,8.22
2023-04-20T01:38:40.604Z,8.19
2023-04-20T01:41:10.902Z,8.13
2023-04-20T01:43:39.826Z,8.42
2023-04-20T01:46:07.865Z,8.30
2023-04-20T01:48:36.034Z,8.49
2023-04-20T01:51:06.198Z,8.47
2023-04-20T01:53:34.026Z,8.64
2023-04-20T01:56:02.071Z,8.46
2023-04-20T01:58:31.319Z,8.46
2023-04-20T02:00:59.273Z,8.37
2023-04-20T02:03:28.030Z,8.30
2023-04-20T02:05:55.999Z,8.51
2023-04-20T02:08:26.392Z,8.34
2023-04-20T02:10:54.111Z,8.48
2023-04-20T02:13:21.987Z,8.57
2023-04-20T02:15:51.331Z,8.67
2023-04-20T02:18:19.477Z,8.66
2023-04-20T02:20:48.931Z,8.71
2023-04-20T02:23:16.852Z,8.49
2023-04-20T02:25:44.734Z,8.52
2023-04-20T02:28:13.195Z,8.40
2023-04-20T02:30:40.992Z,8.44
2023-04-20T02:33:10.453Z,8.56
2023-04-20T02:35:38.250Z,8.57
2023-04-20T02:38:06.080Z,8.53
2023-04-20T02:40:34.178Z,8.51
2023-04-20T02:43:01.883Z,8.33
2023-04-20T02:45:30.822Z,8.53
2023-04-20T02:47:58.820Z,8.62
2023-04-20T02:50:31.505Z,8.39
2023-04-20T02:53:13.943Z,8.34
2023-04-20T02:55:42.502Z,8.17
2023-04-20T02:58:30.747Z,8.15
2023-04-20T03:01:19.643Z,8.38
2023-04-20T03:03:49.858Z,8.36
2023-04-20T03:06:19.501Z,8.55
2023-04-20T03:08:54.017Z,8.44
2023-04-20T03:11:40.639Z,8.26
2023-04-20T03:14:09.493Z,8.11
2023-04-20T03:16:37.627Z,8.13
2023-04-20T03:19:06.172Z,8.00
2023-04-20T03:21:35.614Z,8.23
2023-04-20T03:24:03.632Z,8.16
2023-04-20T03:26:31.685Z,8.22
2023-04-20T03:29:14.993Z,8.23
2023-04-20T03:31:42.918Z,8.24
2023-04-20T03:34:12.354Z,8.19
2023-04-20T03:36:42.427Z,8.14
2023-04-20T03:39:10.603Z,7.94
2023-04-20T03:41:38.442Z,8.08
2023-04-20T03:44:07.107Z,8.21
2023-04-20T03:46:34.927Z,8.17
2023-04-20T03:49:03.993Z,8.28
2023-04-20T03:51:32.375Z,8.06
2023-04-20T03:54:01.559Z,7.86
2023-04-20T03:56:30.367Z,8.06
2023-04-20T03:58:58.913Z,8.12
2023-04-20T04:01:28.224Z,8.11
2023-04-20T04:03:56.207Z,7.94
2023-04-20T04:06:24.710Z,7.80
2023-04-20T04:08:52.758Z,7.77
2023-04-20T04:11:22.051Z,8.00
2023-04-20T04:13:50.791Z,7.87
2023-04-20T04:16:19.447Z,7.93
2023-04-20T04:18:48.710Z,7.81
2023-04-20T04:21:16.739Z,8.02
2023-04-20T04:23:51.324Z,7.90
2023-04-20T04:26:31.830Z,7.91
2023-04-20T04:28:59.854Z,8.09
2023-04-20T04:31:28.608Z,7.99
2023-04-20T04:34:03.829Z,7.96
2023-04-20T04:36:38.748Z,7.85
2023-04-20T04:39:09.373Z,8.12
2023-04-20T04:41:40.430Z,8.21
2023-04-20T04:44:18.811Z,8.03
2023-04-20T04:46:47.577Z,7.86
2023-04-20T04:49:16.266Z,8.00
2023-04-20T04:51:44.464Z,8.36
2023-04-20T04:54:12.239Z,8.16
2023-04-20T04:56:41.574Z,8.13
2023-04-20T04:59:10.172Z,8.03
2023-04-20T05:01:38.231Z,8.15
2023-04-20T05:04:06.459Z,8.33
2023-04-20T05:06:34.615Z,8.40
2023-04-20T05:09:02.896Z,8.32
2023-04-20T05:11:31.708Z,8.18
2023-04-20T05:14:02.527Z,8.20
2023-04-20T05:16:30.621Z,8.28
2023-04-20T05:18:58.631Z,8.13
2023-04-20T05:21:26.616Z,8.01
2023-04-20T05:23:54.380Z,8.36
2023-04-20T05:26:22.285Z,8.53
2023-04-20T05:28:50.588Z,8.51
2023-04-20T05:31:20.191Z,8.42
2023-04-20T05:33:50.946Z,8.40
2023-04-20T05:36:19.182Z,8.55
2023-04-20T05:38:47.460Z,8.35
2023-04-20T05:41:15.514Z,8.69
2023-04-20T05:43:43.488Z,8.55
2023-04-20T05:46:11.418Z,8.50
2023-04-20T05:48:40.766Z,8.69
2023-04-20T05:51:08.596Z,8.29
2023-04-20T05:53:36.482Z,8.51
2023-04-20T05:56:04.542Z,8.56
2023-04-20T05:58:33.931Z,8.26
2023-04-20T06:01:02.651Z,8.18
2023-04-20T06:03:30.817Z,8.34
2023-04-20T06:06:00.824Z,8.53
2023-04-20T06:08:28.604Z,8.40
2023-04-20T06:10:57.205Z,8.51
2023-04-20T06:13:25.027Z,8.39
2023-04-20T06:15:54.112Z,8.39
2023-04-20T06:18:22.114Z,8.19
2023-04-20T06:20:50.442Z,8.51
2023-04-20T06:23:19.613Z,8.12
2023-04-20T06:25:47.916Z,8.13
2023-04-20T06:28:15.825Z,8.31
2023-04-20T06:30:43.993Z,8.42
2023-04-20T06:33:13.948Z,8.19
2023-04-20T06:35:41.659Z,8.04
2023-04-20T06:38:09.496Z,7.98
2023-04-20T06:40:39.151Z,8.22
2023-04-20T06:43:07.462Z,8.00
2023-04-20T06:45:35.781Z,8.14
2023-04-20T06:48:04.208Z,8.16
2023-04-20T06:50:32.733Z,7.90
2023-04-20T06:53:06.415Z,7.55
2023-04-20T06:55:35.177Z,7.75
2023-04-20T06:58:07.775Z,7.53
2023-04-20T07:00:36.568Z,7.51
2023-04-20T07:03:05.830Z,7.46
2023-04-20T07:05:34.948Z,7.41
2023-04-20T07:08:03.630Z,7.58
2023-04-20T07:10:31.679Z,7.66
2023-04-20T07:12:59.427Z,7.39
2023-04-20T07:15:29.124Z,7.51
2023-04-20T07:17:56.973Z,7.61
2023-04-20T07:20:25.079Z,7.35
2023-04-20T07:22:52.883Z,7.46
2023-04-20T07:25:20.703Z,7.44
2023-04-20T07:27:48.451Z,7.62
2023-04-20T07:30:16.460Z,7.67
2023-04-20T07:32:45.870Z,7.56
2023-04-20T07:35:13.686Z,7.82
2023-04-20T07:37:41.601Z,7.58
2023-04-20T07:40:10.579Z,7.69
2023-04-20T07:42:38.830Z,7.81
2023-04-20T07:45:07.732Z,7.69
2023-04-20T07:47:36.097Z,7.82
2023-04-20T07:50:06.973Z,7.79
2023-04-20T07:52:35.622Z,7.69
2023-04-20T07:55:03.500Z,7.63
2023-04-20T07:57:31.501Z,7.94
2023-04-20T07:59:59.244Z,7.94
2023-04-20T08:02:27.009Z,7.79
2023-04-20T08:04:55.154Z,7.87
2023-04-20T08:07:25.069Z,7.92
2023-04-20T08:09:52.920Z,8.13
2023-04-20T08:12:20.786Z,8.28
2023-04-20T08:14:48.862Z,8.38
2023-04-20T08:17:17.105Z,8.05
2023-04-20T08:19:46.063Z,8.26
2023-04-20T08:22:14.024Z,8.45
2023-04-20T08:24:43.094Z,8.20
2023-04-20T08:27:10.940Z,8.24
2023-04-20T08:29:39.684Z,8.52
2023-04-20T08:32:09.127Z,8.20
2023-04-20T08:34:39.246Z,8.03
2023-04-20T08:37:07.220Z,7.93
2023-04-20T08:39:34.879Z,7.99
2023-04-20T08:42:04.310Z,8.24
2023-04-20T08:44:32.715Z,8.15
2023-04-20T08:47:01.074Z,8.35
2023-04-20T08:49:30.592Z,8.27
2023-04-20T08:51:58.520Z,7.97
2023-04-20T08:54:26.625Z,8.11
2023-04-20T08:56:55.456Z,8.08
2023-04-20T08:59:24.825Z,8.11
2023-04-20T09:01:52.689Z,8.35
2023-04-20T09:04:22.565Z,8.51
2023-04-20T09:06:52.859Z,8.62
2023-04-20T09:09:23.092Z,8.78
2023-04-20T09:12:02.093Z,8.67
2023-04-20T09:14:32.672Z,8.67
2023-04-20T09:17:02.198Z,8.72
2023-04-20T09:19:31.302Z,8.60
2023-04-20T09:22:03.790Z,8.72
2023-04-20T09:24:33.573Z,8.53
2023-04-20T09:27:01.947Z,8.19
2023-04-20T09:29:32.029Z,8.37
2023-04-20T09:31:59.857Z,8.76
2023-04-20T09:34:28.207Z,8.50
2023-04-20T09:36:57.681Z,7.88
2023-04-20T09:39:26.837Z,8.02
2023-04-20T09:41:54.742Z,8.15
2023-04-20T09:44:22.474Z,8.23
2023-04-20T09:46:51.904Z,8.44
2023-04-20T09:49:21.293Z,8.66
2023-04-20T09:51:50.445Z,8.68
2023-04-20T09:54:18.276Z,9.08
2023-04-20T09:56:46.970Z,9.03
2023-04-20T09:59:15.140Z,8.66
2023-04-20T10:01:42.923Z,8.91
2023-04-20T10:04:14.790Z,8.96
2023-04-20T10:06:53.990Z,8.91
2023-04-20T10:09:24.373Z,8.62
2023-04-20T10:11:55.099Z,8.57
2023-04-20T10:14:26.252Z,8.93
2023-04-20T10:17:02.405Z,9.00
2023-04-20T10:19:42.371Z,9.08
2023-04-20T10:22:11.611Z,9.22
2023-04-20T10:24:39.661Z,9.43
2023-04-20T10:27:17.929Z,9.58
2023-04-20T10:29:46.076Z,10.02
2023-04-20T10:32:22.947Z,10.03
2023-04-20T10:35:02.407Z,9.83
2023-04-20T10:37:32.413Z,9.87
2023-04-20T10:40:01.015Z,9.70
2023-04-20T10:42:29.638Z,10.10
2023-04-20T10:44:57.824Z,9.93
2023-04-20T10:47:30.251Z,9.94
2023-04-20T10:50:12.497Z,10.00
2023-04-20T10:52:41.854Z,9.32
2023-04-20T10:55:19.988Z,9.82
2023-04-20T10:57:48.556Z,9.85
2023-04-20T11:00:19.023Z,10.21
2023-04-20T11:02:48.952Z,10.35
2023-04-20T11:05:18.798Z,10.31
2023-04-20T11:07:53.756Z,10.29
2023-04-20T11:10:22.080Z,10.55
2023-04-20T11:12:50.254Z,11.05
2023-04-20T11:15:18.760Z,10.67
2023-04-20T11:17:47.061Z,10.96
2023-04-20T11:20:17.819Z,11.04
2023-04-20T11:22:58.507Z,10.83
2023-04-20T11:25:27.814Z,10.72
2023-04-20T11:28:07.451Z,10.57
2023-04-20T11:30:41.234Z,10.41
2023-04-20T11:33:09.637Z,10.91
2023-04-20T11:35:39.018Z,10.73
2023-04-20T11:38:08.744Z,10.28
2023-04-20T11:40:37.374Z,10.48
2023-04-20T11:43:05.625Z,10.50
2023-04-20T11:45:36.163Z,10.97
2023-04-20T11:48:06.387Z,10.31
2023-04-20T11:50:34.362Z,11.12
2023-04-20T11:53:02.416Z,11.49
2023-04-20T11:55:32.149Z,11.53
2023-04-20T11:57:59.925Z,11.25
2023-04-20T12:00:28.031Z,11.59
2023-04-20T12:02:56.078Z,11.58
2023-04-20T12:05:24.096Z,11.71
2023-04-20T12:07:52.034Z,11.78
2023-04-20T12:10:21.276Z,11.77
2023-04-20T12:12:50.510Z,12.00
2023-04-20T12:15:18.778Z,11.59
2023-04-20T12:17:46.634Z,12.18
2023-04-20T12:20:15.222Z,12.75
2023-04-20T12:22:43.018Z,12.74
2023-04-20T12:25:11.253Z,12.59
2023-04-20T12:27:39.047Z,12.45
2023-04-20T12:30:10.993Z,12.70
2023-04-20T12:32:39.533Z,12.93
2023-04-20T12:35:08.417Z,12.18
2023-04-20T12:37:37.002Z,12.72
2023-04-20T12:40:08.836Z,12.00
2023-04-20T12:42:36.589Z,12.24
2023-04-20T12:45:04.750Z,12.01
2023-04-20T12:47:33.935Z,12.06
2023-04-20T12:50:01.698Z,12.16
2023-04-20T12:52:30.184Z,12.30
2023-04-20T12:54:58.049Z,12.56
2023-04-20T12:57:25.909Z,12.97
2023-04-20T12:59:54.637Z,13.01
2023-04-20T13:02:23.201Z,12.59
2023-04-20T13:04:53.376Z,12.28
2023-04-20T13:07:21.246Z,11.53
2023-04-20T13:09:48.994Z,11.82
2023-04-20T13:12:16.913Z,11.72
2023-04-20T13:14:44.836Z,11.56
2023-04-20T13:17:12.552Z,11.72
2023-04-20T13:19:40.525Z,11.54
2023-04-20T13:22:11.825Z,11.51
2023-04-20T13:24:45.492Z,11.50
2023-04-20T13:33:02.159Z,11.68
2023-04-20T13:35:30.261Z,11.81
2023-04-20T13:37:59.949Z,11.56
2023-04-20T13:40:27.716Z,11.48
2023-04-20T13:42:55.906Z,11.59
2023-04-20T13:45:24.099Z,11.83
2023-04-20T13:47:51.993Z,11.50
2023-04-20T13:50:19.968Z,11.36
2023-04-20T13:52:47.942Z,11.90
2023-04-20T13:55:20.240Z,12.26
2023-04-20T13:57:48.304Z,12.34
2023-04-20T14:00:16.608Z,12.55
2023-04-20T14:02:44.562Z,12.93
2023-04-20T14:05:12.813Z,12.80
2023-04-20T14:07:40.829Z,12.35
2023-04-20T14:10:10.189Z,12.14
2023-04-20T14:12:39.930Z,12.16
2023-04-20T14:15:08.651Z,12.05
2023-04-20T14:17:36.818Z,11.72
2023-04-20T14:20:05.121Z,11.86
2023-04-20T14:22:36.210Z,12.17
2023-04-20T14:25:04.649Z,12.36
2023-04-20T14:27:32.325Z,12.51
2023-04-20T14:30:01.727Z,12.52
2023-04-20T14:32:31.354Z,12.25
2023-04-20T14:34:59.538Z,12.59
2023-04-20T14:37:27.436Z,12.35
2023-04-20T14:39:55.583Z,12.48
2023-04-20T14:42:23.912Z,12.44
2023-04-20T14:44:52.076Z,12.76
2023-04-20T14:47:21.717Z,12.53
2023-04-20T14:49:49.467Z,12.50
2023-04-20T14:52:17.312Z,12.67
2023-04-20T14:54:45.064Z,12.82
2023-04-20T14:57:12.768Z,12.81
2023-04-20T14:59:41.338Z,12.47
2023-04-20T15:02:09.407Z,12.58
2023-04-20T15:04:38.652Z,12.32
2023-04-20T15:07:06.969Z,12.74
2023-04-20T15:09:34.807Z,12.78
2023-04-20T15:12:02.752Z,12.83
2023-04-20T15:14:30.855Z,12.88
2023-04-20T15:16:58.873Z,12.18
2023-04-20T15:19:26.905Z,12.13
2023-04-20T15:21:56.184Z,11.97
2023-04-20T15:24:24.188Z,12.23
2023-04-20T15:26:52.158Z,12.26
2023-04-20T15:29:20.722Z,12.48
2023-04-20T15:31:48.746Z,12.32
2023-04-20T15:34:17.300Z,12.30
2023-04-20T15:36:45.864Z,12.22
2023-04-20T15:39:15.079Z,12.47
2023-04-20T15:41:42.956Z,12.62
2023-04-20T15:44:10.765Z,12.40
2023-04-20T15:46:39.001Z,12.50
2023-04-20T15:49:07.120Z,12.42
2023-04-20T15:51:34.821Z,12.30
2023-04-20T15:54:02.634Z,12.22
2023-04-20T15:56:32.411Z,12.28
2023-04-20T15:59:00.394Z,12.44
2023-04-20T16:01:28.235Z,12.51
2023-04-20T16:03:56.275Z,12.63
2023-04-20T16:06:24.232Z,12.59
2023-04-20T16:08:54.072Z,12.59
2023-04-20T16:11:22.234Z,12.63
2023-04-20T16:13:51.698Z,12.68
2023-04-20T16:16:19.605Z,12.68
2023-04-20T16:18:48.080Z,12.80
2023-04-20T16:21:15.891Z,12.84
2023-04-20T16:23:43.627Z,12.74
2023-04-20T16:26:11.335Z,12.76
2023-04-20T16:28:39.302Z,12.73
2023-04-20T16:31:08.538Z,12.72
2023-04-20T16:33:37.906Z,12.74
2023-04-20T16:36:06.482Z,12.82
2023-04-20T16:38:34.751Z,12.58
2023-04-20T16:41:02.571Z,12.76
2023-04-20T16:43:30.412Z,12.57
2023-04-20T16:45:58.195Z,12.49
2023-04-20T16:48:27.596Z,12.46
2023-04-20T16:50:55.338Z,12.41
2023-04-20T16:53:23.191Z,12.34
2023-04-20T16:55:50.950Z,12.05
2023-04-20T16:58:18.897Z,12.13
2023-04-20T17:00:46.741Z,12.16
2023-04-20T17:03:15.068Z,12.13
2023-04-20T17:05:46.398Z,12.20
2023-04-20T17:08:14.404Z,12.04
2023-04-20T17:10:42.283Z,12.05
2023-04-20T17:13:10.031Z,12.04
2023-04-20T17:15:37.772Z,12.15
2023-04-20T17:18:07.033Z,12.04
2023-04-20T17:20:34.842Z,12.28
2023-04-20T17:23:04.112Z,11.86
2023-04-20T17:25:31.993Z,12.05
2023-04-20T17:27:59.855Z,11.74
2023-04-20T17:30:28.017Z,11.59
2023-04-20T17:32:57.224Z,11.75
2023-04-20T17:35:25.045Z,11.46
2023-04-20T17:37:53.161Z,11.68
2023-04-20T17:40:22.622Z,11.86
2023-04-20T17:42:50.548Z,11.59
2023-04-20T17:45:18.453Z,11.67
2023-04-20T17:47:46.234Z,11.47
2023-04-20T17:50:16.450Z,11.22
2023-04-20T17:52:44.577Z,11.42
2023-04-20T17:55:12.675Z,11.34
2023-04-20T17:57:41.944Z,10.96
2023-04-20T18:00:11.939Z,11.08
2023-04-20T18:02:40.438Z,10.56
2023-04-20T18:05:09.277Z,10.38
2023-04-20T18:07:37.049Z,10.58
2023-04-20T18:10:05.954Z,10.43
2023-04-20T18:12:33.876Z,10.51
2023-04-20T18:15:03.245Z,10.14
2023-04-20T18:17:31.085Z,10.22
2023-04-20T18:19:59.083Z,9.97
2023-04-20T18:22:26.953Z,10.22
2023-04-20T18:24:55.335Z,10.09
2023-04-20T18:27:23.043Z,10.19
2023-04-20T18:29:52.941Z,10.21
2023-04-20T18:32:22.524Z,9.87
2023-04-20T18:34:50.342Z,9.83
2023-04-20T18:37:18.210Z,10.12
2023-04-20T18:39:45.988Z,9.76
2023-04-20T18:42:13.794Z,9.95
2023-04-20T18:44:41.920Z,10.14
2023-04-20T18:47:09.810Z,9.62
2023-04-20T18:49:39.254Z,9.57
2023-04-20T18:52:07.142Z,9.68
2023-04-20T18:54:35.535Z,9.75
2023-04-20T18:57:03.622Z,9.73
2023-04-20T18:59:31.612Z,9.74
2023-04-20T19:01:59.453Z,9.85
2023-04-20T19:04:27.676Z,9.74
2023-04-20T19:06:56.947Z,9.72
2023-04-20T19:09:24.855Z,9.68
2023-04-20T19:11:52.680Z,9.71
2023-04-20T19:14:20.886Z,9.88
2023-04-20T19:16:48.881Z,9.92
2023-04-20T19:19:16.758Z,9.83
2023-04-20T19:21:44.508Z,9.76
2023-04-20T19:24:13.762Z,9.83
2023-04-20T19:26:41.625Z,9.75
2023-04-20T19:29:09.482Z,9.76
2023-04-20T19:31:39.976Z,9.60
2023-04-20T19:34:08.214Z,9.79
2023-04-20T19:36:36.138Z,9.76
2023-04-20T19:39:04.395Z,9.86
2023-04-20T19:41:33.933Z,9.80
2023-04-20T19:44:04.490Z,9.80
2023-04-20T19:46:32.312Z,9.81
2023-04-20T19:49:00.473Z,9.89
2023-04-20T19:51:28.567Z,9.74
2023-04-20T19:54:00.331Z,9.95
2023-04-20T19:56:28.251Z,9.62
2023-04-20T19:58:57.506Z,9.86
2023-04-20T20:01:25.332Z,9.75
2023-04-20T20:03:54.095Z,9.77
2023-04-20T20:06:22.776Z,9.68
2023-04-20T20:08:50.869Z,9.91
2023-04-20T20:11:18.682Z,9.88
2023-04-20T20:13:46.670Z,9.95
2023-04-20T20:16:16.207Z,9.56
2023-04-20T20:18:45.019Z,9.77
2023-04-20T20:21:12.731Z,9.82
2023-04-20T20:23:40.775Z,9.66
2023-04-20T20:26:09.365Z,9.59
2023-04-20T20:28:37.126Z,9.84
2023-04-20T20:31:05.205Z,9.62
2023-04-20T20:33:34.983Z,9.69
2023-04-20T20:36:04.195Z,9.70
2023-04-20T20:38:32.844Z,9.71
2023-04-20T20:41:00.700Z,9.78
2023-04-20T20:43:28.569Z,9.63
2023-04-20T20:45:56.263Z,9.53
2023-04-20T20:48:24.034Z,9.58
2023-04-20T20:50:53.157Z,9.67
2023-04-20T20:53:20.900Z,9.67
2023-04-20T20:55:48.680Z,9.64
2023-04-20T20:58:16.408Z,9.31
2023-04-20T21:00:46.934Z,9.37
2023-04-20T21:03:15.217Z,9.08
2023-04-20T21:05:43.346Z,9.07
2023-04-20T21:08:13.024Z,8.89
2023-04-20T21:10:40.908Z,9.04
2023-04-20T21:13:08.620Z,9.01
2023-04-20T21:15:36.362Z,8.96
2023-04-20T21:18:04.292Z,8.93
2023-04-20T21:20:32.056Z,9.05
2023-04-20T21:22:59.998Z,9.04
2023-04-20T21:25:29.279Z,8.96
2023-04-20T21:27:56.958Z,8.94
2023-04-20T21:30:24.830Z,9.07
2023-04-20T21:32:52.700Z,8.78
2023-04-20T21:35:20.662Z,8.49
2023-04-20T21:37:48.464Z,8.64
2023-04-20T21:40:16.379Z,8.73
2023-04-20T21:42:45.562Z,8.75
2023-04-20T21:45:13.423Z,8.68
2023-04-20T21:47:41.210Z,8.73
2023-04-20T21:50:09.379Z,8.72
2023-04-20T21:52:37.130Z,8.76
2023-04-20T21:55:05.096Z,8.67
2023-04-20T21:57:32.771Z,8.67
2023-04-20T22:00:01.955Z,8.75
2023-04-20T22:02:29.798Z,8.75
2023-04-20T22:04:58.010Z,8.66
2023-04-20T22:07:27.589Z,8.72
2023-04-20T22:09:55.812Z,8.57
2023-04-20T22:12:38.273Z,8.75
2023-04-20T22:15:13.386Z,8.66
2023-04-20T22:17:41.607Z,8.62
2023-04-20T22:20:11.719Z,8.64
2023-04-20T22:22:40.132Z,8.56
2023-04-20T22:25:09.686Z,8.71
2023-04-20T22:27:38.916Z,8.73
2023-04-20T22:30:09.323Z,8.65
2023-04-20T22:32:39.095Z,8.56
2023-04-20T22:35:07.921Z,8.57
2023-04-20T22:37:35.956Z,8.60
2023-04-20T22:40:05.735Z,8.36
2023-04-20T22:42:34.718Z,8.54
2023-04-20T22:45:02.770Z,8.56
2023-04-20T22:47:30.666Z,8.46
2023-04-20T22:49:59.862Z,8.55
2023-04-20T22:52:27.673Z,8.56
2023-04-20T22:54:55.473Z,8.42
2023-04-20T22:57:23.529Z,8.53
2023-04-20T22:59:51.422Z,8.56
2023-04-20T23:02:19.308Z,8.49
2023-04-20T23:04:47.316Z,8.51
2023-04-20T23:07:17.464Z,8.51
2023-04-20T23:09:45.667Z,8.41
2023-04-20T23:12:13.426Z,8.49
2023-04-20T23:14:42.308Z,8.45
2023-04-20T23:17:10.485Z,8.49
2023-04-20T23:19:38.574Z,8.51
2023-04-20T23:22:08.699Z,8.59
2023-04-20T23:24:37.927Z,8.61
2023-04-20T23:27:06.024Z,8.60
2023-04-20T23:29:34.002Z,8.43
2023-04-20T23:32:02.220Z,8.45
2023-04-20T23:34:30.020Z,8.46
2023-04-20T23:36:57.827Z,8.53
2023-04-20T23:39:25.590Z,8.45
2023-04-20T23:41:54.727Z,8.52
2023-04-20T23:44:22.487Z,8.39
2023-04-20T23:46:50.550Z,8.43
2023-04-20T23:49:18.823Z,8.44
2023-04-20T23:51:46.780Z,8.52
2023-04-20T23:54:14.634Z,8.46
2023-04-20T23:56:42.758Z,8.49
2023-04-20T23:59:11.938Z,8.49
